sensor_id;sensor_type;location;lat;lon;timestamp;temperature;humidity
27266;DHT22;14766;51.380;13.762;2024-01-11T00:00:35;-3.40;56.00
27266;DHT22;14766;51.380;13.762;2024-01-11T00:03:02;-3.40;56.00
27266;DHT22;14766;51.380;13.762;2024-01-11T00:05:29;-3.40;56.00
27266;DHT22;14766;51.380;13.762;2024-01-11T00:07:56;-3.50;55.90
27266;DHT22;14766;51.380;13.762;2024-01-11T00:10:24;-3.40;55.90
27266;DHT22;14766;51.380;13.762;2024-01-11T00:12:51;-3.50;55.90
27266;DHT22;14766;51.380;13.762;2024-01-11T00:15:18;-3.50;55.90
27266;DHT22;14766;51.380;13.762;2024-01-11T00:17:46;-3.50;55.90
27266;DHT22;14766;51.380;13.762;2024-01-11T00:20:13;-3.50;55.80
27266;DHT22;14766;51.380;13.762;2024-01-11T00:22:40;-3.50;55.80
27266;DHT22;14766;51.380;13.762;2024-01-11T00:25:08;-3.50;55.90
27266;DHT22;14766;51.380;13.762;2024-01-11T00:27:35;-3.50;55.80
27266;DHT22;14766;51.380;13.762;2024-01-11T00:30:03;-3.50;55.80
27266;DHT22;14766;51.380;13.762;2024-01-11T00:32:30;-3.60;56.00
27266;DHT22;14766;51.380;13.762;2024-01-11T00:34:57;-3.60;55.90
27266;DHT22;14766;51.380;13.762;2024-01-11T00:37:25;-3.60;55.90
27266;DHT22;14766;51.380;13.762;2024-01-11T00:39:53;-3.70;55.90
27266;DHT22;14766;51.380;13.762;2024-01-11T00:42:20;-3.60;56.10
27266;DHT22;14766;51.380;13.762;2024-01-11T00:44:47;-3.70;56.20
27266;DHT22;14766;51.380;13.762;2024-01-11T00:47:14;-3.70;56.30
27266;DHT22;14766;51.380;13.762;2024-01-11T00:49:41;-3.70;56.40
27266;DHT22;14766;51.380;13.762;2024-01-11T00:52:09;-3.70;56.40
27266;DHT22;14766;51.380;13.762;2024-01-11T00:54:37;-3.70;56.60
27266;DHT22;14766;51.380;13.762;2024-01-11T00:57:04;-3.70;56.60
27266;DHT22;14766;51.380;13.762;2024-01-11T00:59:31;-3.70;56.70
27266;DHT22;14766;51.380;13.762;2024-01-11T01:01:59;-3.80;56.80
27266;DHT22;14766;51.380;13.762;2024-01-11T01:04:27;-3.80;56.80
27266;DHT22;14766;51.380;13.762;2024-01-11T01:06:54;-3.70;56.80
27266;DHT22;14766;51.380;13.762;2024-01-11T01:09:21;-3.80;56.70
27266;DHT22;14766;51.380;13.762;2024-01-11T01:11:48;-3.70;56.50
27266;DHT22;14766;51.380;13.762;2024-01-11T01:14:15;-3.70;56.50
27266;DHT22;14766;51.380;13.762;2024-01-11T01:16:43;-3.80;56.40
27266;DHT22;14766;51.380;13.762;2024-01-11T01:19:11;-3.70;56.50
27266;DHT22;14766;51.380;13.762;2024-01-11T01:21:39;-3.80;56.40
27266;DHT22;14766;51.380;13.762;2024-01-11T01:24:06;-3.80;56.50
27266;DHT22;14766;51.380;13.762;2024-01-11T01:26:34;-3.80;56.60
27266;DHT22;14766;51.380;13.762;2024-01-11T01:29:02;-3.80;56.70
27266;DHT22;14766;51.380;13.762;2024-01-11T01:31:30;-3.80;56.70
27266;DHT22;14766;51.380;13.762;2024-01-11T01:33:57;-3.80;56.80
27266;DHT22;14766;51.380;13.762;2024-01-11T01:36:24;-3.80;56.80
27266;DHT22;14766;51.380;13.762;2024-01-11T01:38:51;-3.80;56.80
27266;DHT22;14766;51.380;13.762;2024-01-11T01:41:20;-3.80;56.70
27266;DHT22;14766;51.380;13.762;2024-01-11T01:43:47;-3.80;56.70
27266;DHT22;14766;51.380;13.762;2024-01-11T01:46:19;-3.80;56.70
27266;DHT22;14766;51.380;13.762;2024-01-11T01:48:49;-3.80;56.70
27266;DHT22;14766;51.380;13.762;2024-01-11T01:51:17;-3.80;56.70
27266;DHT22;14766;51.380;13.762;2024-01-11T01:53:44;-3.80;56.70
27266;DHT22;14766;51.380;13.762;2024-01-11T01:56:13;-3.90;56.60
27266;DHT22;14766;51.380;13.762;2024-01-11T01:58:40;-3.90;56.70
27266;DHT22;14766;51.380;13.762;2024-01-11T02:01:10;-3.90;56.70
27266;DHT22;14766;51.380;13.762;2024-01-11T02:03:38;-3.90;56.80
27266;DHT22;14766;51.380;13.762;2024-01-11T02:06:06;-3.90;56.80
27266;DHT22;14766;51.380;13.762;2024-01-11T02:08:34;-3.90;56.80
27266;DHT22;14766;51.380;13.762;2024-01-11T02:11:02;-3.90;56.80
27266;DHT22;14766;51.380;13.762;2024-01-11T02:13:31;-3.90;56.70
27266;DHT22;14766;51.380;13.762;2024-01-11T02:15:58;-3.90;56.60
27266;DHT22;14766;51.380;13.762;2024-01-11T02:18:26;-3.90;56.50
27266;DHT22;14766;51.380;13.762;2024-01-11T02:20:54;-3.90;56.40
27266;DHT22;14766;51.380;13.762;2024-01-11T02:23:24;-3.90;56.50
27266;DHT22;14766;51.380;13.762;2024-01-11T02:25:54;-3.90;56.40
27266;DHT22;14766;51.380;13.762;2024-01-11T02:28:21;-3.90;56.50
27266;DHT22;14766;51.380;13.762;2024-01-11T02:30:48;-3.90;56.50
27266;DHT22;14766;51.380;13.762;2024-01-11T02:33:16;-3.90;56.50
27266;DHT22;14766;51.380;13.762;2024-01-11T02:35:45;-3.90;57.10
27266;DHT22;14766;51.380;13.762;2024-01-11T02:38:14;-3.90;56.50
27266;DHT22;14766;51.380;13.762;2024-01-11T02:40:42;-3.90;56.50
27266;DHT22;14766;51.380;13.762;2024-01-11T02:43:11;-3.90;56.50
27266;DHT22;14766;51.380;13.762;2024-01-11T02:45:38;-4.00;56.30
27266;DHT22;14766;51.380;13.762;2024-01-11T02:48:05;-4.00;56.30
27266;DHT22;14766;51.380;13.762;2024-01-11T02:50:33;-4.00;56.40
27266;DHT22;14766;51.380;13.762;2024-01-11T02:53:00;-4.00;56.50
27266;DHT22;14766;51.380;13.762;2024-01-11T02:55:27;-4.10;56.60
27266;DHT22;14766;51.380;13.762;2024-01-11T02:57:54;-4.00;56.60
27266;DHT22;14766;51.380;13.762;2024-01-11T03:00:21;-4.00;57.30
27266;DHT22;14766;51.380;13.762;2024-01-11T03:02:48;-4.10;56.50
27266;DHT22;14766;51.380;13.762;2024-01-11T03:05:16;-4.10;56.40
27266;DHT22;14766;51.380;13.762;2024-01-11T03:07:43;-4.10;56.40
27266;DHT22;14766;51.380;13.762;2024-01-11T03:10:10;-4.10;56.60
27266;DHT22;14766;51.380;13.762;2024-01-11T03:12:39;-4.20;56.80
27266;DHT22;14766;51.380;13.762;2024-01-11T03:15:06;-4.20;56.90
27266;DHT22;14766;51.380;13.762;2024-01-11T03:17:34;-4.20;57.10
27266;DHT22;14766;51.380;13.762;2024-01-11T03:20:02;-4.20;57.30
27266;DHT22;14766;51.380;13.762;2024-01-11T03:22:32;-4.20;57.40
27266;DHT22;14766;51.380;13.762;2024-01-11T03:25:00;-4.20;57.60
27266;DHT22;14766;51.380;13.762;2024-01-11T03:27:28;-4.20;57.50
27266;DHT22;14766;51.380;13.762;2024-01-11T03:29:55;-4.20;57.70
27266;DHT22;14766;51.380;13.762;2024-01-11T03:32:22;-4.10;57.80
27266;DHT22;14766;51.380;13.762;2024-01-11T03:34:50;-4.10;58.20
27266;DHT22;14766;51.380;13.762;2024-01-11T03:37:17;-4.10;57.60
27266;DHT22;14766;51.380;13.762;2024-01-11T03:39:44;-4.10;57.60
27266;DHT22;14766;51.380;13.762;2024-01-11T03:42:11;-4.10;57.50
27266;DHT22;14766;51.380;13.762;2024-01-11T03:44:38;-4.00;57.50
27266;DHT22;14766;51.380;13.762;2024-01-11T03:47:05;-4.00;57.40
27266;DHT22;14766;51.380;13.762;2024-01-11T03:49:34;-4.00;57.40
27266;DHT22;14766;51.380;13.762;2024-01-11T03:52:01;-4.10;57.30
27266;DHT22;14766;51.380;13.762;2024-01-11T03:54:28;-4.00;57.40
27266;DHT22;14766;51.380;13.762;2024-01-11T03:56:55;-4.00;57.40
27266;DHT22;14766;51.380;13.762;2024-01-11T03:59:22;-4.00;57.40
27266;DHT22;14766;51.380;13.762;2024-01-11T04:01:49;-4.00;57.40
27266;DHT22;14766;51.380;13.762;2024-01-11T04:04:17;-4.00;57.40
27266;DHT22;14766;51.380;13.762;2024-01-11T04:06:44;-4.10;57.30
27266;DHT22;14766;51.380;13.762;2024-01-11T04:09:12;-4.10;57.30
27266;DHT22;14766;51.380;13.762;2024-01-11T04:11:39;-4.00;57.30
27266;DHT22;14766;51.380;13.762;2024-01-11T04:14:06;-4.00;57.20
27266;DHT22;14766;51.380;13.762;2024-01-11T04:16:34;-4.00;57.20
27266;DHT22;14766;51.380;13.762;2024-01-11T04:19:06;-4.00;57.20
27266;DHT22;14766;51.380;13.762;2024-01-11T04:21:33;-4.10;57.20
27266;DHT22;14766;51.380;13.762;2024-01-11T04:24:01;-4.10;57.20
27266;DHT22;14766;51.380;13.762;2024-01-11T04:26:28;-4.10;57.30
27266;DHT22;14766;51.380;13.762;2024-01-11T04:28:55;-4.10;57.40
27266;DHT22;14766;51.380;13.762;2024-01-11T04:31:27;-4.10;58.20
27266;DHT22;14766;51.380;13.762;2024-01-11T04:33:54;-4.10;57.70
27266;DHT22;14766;51.380;13.762;2024-01-11T04:36:21;-4.10;57.80
27266;DHT22;14766;51.380;13.762;2024-01-11T04:38:48;-4.10;57.80
27266;DHT22;14766;51.380;13.762;2024-01-11T04:41:16;-4.10;57.90
27266;DHT22;14766;51.380;13.762;2024-01-11T04:43:44;-4.10;57.80
27266;DHT22;14766;51.380;13.762;2024-01-11T04:46:18;-4.10;57.90
27266;DHT22;14766;51.380;13.762;2024-01-11T04:48:46;-4.10;57.90
27266;DHT22;14766;51.380;13.762;2024-01-11T04:51:14;-4.10;57.90
27266;DHT22;14766;51.380;13.762;2024-01-11T04:53:42;-4.10;58.00
27266;DHT22;14766;51.380;13.762;2024-01-11T04:56:11;-4.10;57.90
27266;DHT22;14766;51.380;13.762;2024-01-11T04:58:43;-4.10;57.90
27266;DHT22;14766;51.380;13.762;2024-01-11T05:01:17;-4.10;57.90
27266;DHT22;14766;51.380;13.762;2024-01-11T05:03:46;-4.10;57.90
27266;DHT22;14766;51.380;13.762;2024-01-11T05:06:17;-4.00;58.00
27266;DHT22;14766;51.380;13.762;2024-01-11T05:08:46;-4.00;58.10
27266;DHT22;14766;51.380;13.762;2024-01-11T05:11:20;-4.00;58.00
27266;DHT22;14766;51.380;13.762;2024-01-11T05:13:48;-4.00;58.00
27266;DHT22;14766;51.380;13.762;2024-01-11T05:16:27;-4.00;57.80
27266;DHT22;14766;51.380;13.762;2024-01-11T05:18:56;-4.00;57.70
27266;DHT22;14766;51.380;13.762;2024-01-11T05:21:24;-4.00;57.70
27266;DHT22;14766;51.380;13.762;2024-01-11T05:23:53;-4.00;57.80
27266;DHT22;14766;51.380;13.762;2024-01-11T05:26:20;-4.00;57.80
27266;DHT22;14766;51.380;13.762;2024-01-11T05:28:47;-4.00;57.80
27266;DHT22;14766;51.380;13.762;2024-01-11T05:31:15;-4.00;57.70
27266;DHT22;14766;51.380;13.762;2024-01-11T05:33:43;-4.00;57.70
27266;DHT22;14766;51.380;13.762;2024-01-11T05:36:11;-4.00;57.70
27266;DHT22;14766;51.380;13.762;2024-01-11T05:38:39;-4.00;57.70
27266;DHT22;14766;51.380;13.762;2024-01-11T05:41:07;-4.00;57.80
27266;DHT22;14766;51.380;13.762;2024-01-11T05:43:37;-4.10;57.80
27266;DHT22;14766;51.380;13.762;2024-01-11T05:46:04;-4.00;57.90
27266;DHT22;14766;51.380;13.762;2024-01-11T05:48:31;-4.00;57.90
27266;DHT22;14766;51.380;13.762;2024-01-11T05:50:58;-4.00;57.90
27266;DHT22;14766;51.380;13.762;2024-01-11T05:53:28;-4.00;58.00
27266;DHT22;14766;51.380;13.762;2024-01-11T05:55:56;-4.00;57.90
27266;DHT22;14766;51.380;13.762;2024-01-11T05:58:23;-4.00;58.00
27266;DHT22;14766;51.380;13.762;2024-01-11T06:00:50;-4.00;58.10
27266;DHT22;14766;51.380;13.762;2024-01-11T06:03:17;-4.00;58.10
27266;DHT22;14766;51.380;13.762;2024-01-11T06:05:44;-4.00;58.00
27266;DHT22;14766;51.380;13.762;2024-01-11T06:08:11;-4.00;58.00
27266;DHT22;14766;51.380;13.762;2024-01-11T06:10:39;-4.00;58.00
27266;DHT22;14766;51.380;13.762;2024-01-11T06:13:06;-4.00;57.90
27266;DHT22;14766;51.380;13.762;2024-01-11T06:15:34;-4.00;57.90
27266;DHT22;14766;51.380;13.762;2024-01-11T06:18:01;-4.00;58.00
27266;DHT22;14766;51.380;13.762;2024-01-11T06:20:28;-4.00;58.50
27266;DHT22;14766;51.380;13.762;2024-01-11T06:22:55;-4.00;57.90
27266;DHT22;14766;51.380;13.762;2024-01-11T06:25:22;-4.00;58.10
27266;DHT22;14766;51.380;13.762;2024-01-11T06:27:49;-4.00;58.50
27266;DHT22;14766;51.380;13.762;2024-01-11T06:30:16;-4.00;59.30
27266;DHT22;14766;51.380;13.762;2024-01-11T06:32:44;-4.00;58.80
27266;DHT22;14766;51.380;13.762;2024-01-11T06:35:12;-4.00;59.00
27266;DHT22;14766;51.380;13.762;2024-01-11T06:37:39;-3.90;59.20
27266;DHT22;14766;51.380;13.762;2024-01-11T06:40:07;-3.90;59.20
27266;DHT22;14766;51.380;13.762;2024-01-11T06:42:35;-3.90;59.20
27266;DHT22;14766;51.380;13.762;2024-01-11T06:45:03;-3.80;59.30
27266;DHT22;14766;51.380;13.762;2024-01-11T06:47:30;-3.80;59.40
27266;DHT22;14766;51.380;13.762;2024-01-11T06:49:58;-3.80;59.40
27266;DHT22;14766;51.380;13.762;2024-01-11T06:52:26;-3.70;59.50
27266;DHT22;14766;51.380;13.762;2024-01-11T06:54:53;-3.70;59.60
27266;DHT22;14766;51.380;13.762;2024-01-11T06:57:20;-3.60;59.70
27266;DHT22;14766;51.380;13.762;2024-01-11T06:59:48;-3.60;59.80
27266;DHT22;14766;51.380;13.762;2024-01-11T07:02:16;-3.50;60.00
27266;DHT22;14766;51.380;13.762;2024-01-11T07:04:44;-3.50;60.60
27266;DHT22;14766;51.380;13.762;2024-01-11T07:07:11;-3.40;60.70
27266;DHT22;14766;51.380;13.762;2024-01-11T07:09:39;-3.40;61.20
27266;DHT22;14766;51.380;13.762;2024-01-11T07:12:06;-3.40;61.50
27266;DHT22;14766;51.380;13.762;2024-01-11T07:14:33;-3.30;61.90
27266;DHT22;14766;51.380;13.762;2024-01-11T07:17:00;-3.20;61.80
27266;DHT22;14766;51.380;13.762;2024-01-11T07:19:28;-3.20;62.40
27266;DHT22;14766;51.380;13.762;2024-01-11T07:21:55;-3.20;63.20
27266;DHT22;14766;51.380;13.762;2024-01-11T07:24:22;-3.10;63.80
27266;DHT22;14766;51.380;13.762;2024-01-11T07:26:49;-3.10;64.20
27266;DHT22;14766;51.380;13.762;2024-01-11T07:29:16;-3.10;63.50
27266;DHT22;14766;51.380;13.762;2024-01-11T07:31:44;-3.00;63.10
27266;DHT22;14766;51.380;13.762;2024-01-11T07:34:11;-3.00;62.80
27266;DHT22;14766;51.380;13.762;2024-01-11T07:36:38;-2.90;62.60
27266;DHT22;14766;51.380;13.762;2024-01-11T07:39:05;-2.90;62.40
27266;DHT22;14766;51.380;13.762;2024-01-11T07:41:34;-2.80;62.30
27266;DHT22;14766;51.380;13.762;2024-01-11T07:44:04;-2.80;62.10
27266;DHT22;14766;51.380;13.762;2024-01-11T07:46:32;-2.70;62.10
27266;DHT22;14766;51.380;13.762;2024-01-11T07:49:08;-2.70;62.10
27266;DHT22;14766;51.380;13.762;2024-01-11T07:51:35;-2.60;62.40
27266;DHT22;14766;51.380;13.762;2024-01-11T07:54:03;-2.60;62.60
27266;DHT22;14766;51.380;13.762;2024-01-11T07:56:30;-2.60;62.80
27266;DHT22;14766;51.380;13.762;2024-01-11T07:58:58;-2.50;62.80
27266;DHT22;14766;51.380;13.762;2024-01-11T08:01:25;-2.40;63.20
27266;DHT22;14766;51.380;13.762;2024-01-11T08:03:52;-2.40;63.80
27266;DHT22;14766;51.380;13.762;2024-01-11T08:06:20;-2.40;63.60
27266;DHT22;14766;51.380;13.762;2024-01-11T08:08:47;-2.30;63.70
27266;DHT22;14766;51.380;13.762;2024-01-11T08:11:19;-2.30;63.70
27266;DHT22;14766;51.380;13.762;2024-01-11T08:13:47;-2.20;63.70
27266;DHT22;14766;51.380;13.762;2024-01-11T08:16:17;-2.20;64.20
27266;DHT22;14766;51.380;13.762;2024-01-11T08:18:45;-2.20;64.80
27266;DHT22;14766;51.380;13.762;2024-01-11T08:21:14;-2.00;64.80
27266;DHT22;14766;51.380;13.762;2024-01-11T08:23:41;-1.90;64.60
27266;DHT22;14766;51.380;13.762;2024-01-11T08:26:13;-1.80;64.30
27266;DHT22;14766;51.380;13.762;2024-01-11T08:28:41;-1.70;64.30
27266;DHT22;14766;51.380;13.762;2024-01-11T08:31:08;-1.50;65.00
27266;DHT22;14766;51.380;13.762;2024-01-11T08:33:36;-1.40;63.80
27266;DHT22;14766;51.380;13.762;2024-01-11T08:36:05;-1.20;64.00
27266;DHT22;14766;51.380;13.762;2024-01-11T08:38:34;-1.00;63.40
27266;DHT22;14766;51.380;13.762;2024-01-11T08:41:02;-0.70;63.20
27266;DHT22;14766;51.380;13.762;2024-01-11T08:43:31;-0.40;62.60
27266;DHT22;14766;51.380;13.762;2024-01-11T08:45:59;-0.20;61.00
27266;DHT22;14766;51.380;13.762;2024-01-11T08:48:28;0.10;60.20
27266;DHT22;14766;51.380;13.762;2024-01-11T08:50:56;0.30;59.70
27266;DHT22;14766;51.380;13.762;2024-01-11T08:53:23;0.40;58.90
27266;DHT22;14766;51.380;13.762;2024-01-11T08:55:51;0.50;58.10
27266;DHT22;14766;51.380;13.762;2024-01-11T08:58:18;0.50;57.60
27266;DHT22;14766;51.380;13.762;2024-01-11T09:00:45;0.50;57.40
27266;DHT22;14766;51.380;13.762;2024-01-11T09:03:12;0.40;57.30
27266;DHT22;14766;51.380;13.762;2024-01-11T09:05:42;0.30;57.40
27266;DHT22;14766;51.380;13.762;2024-01-11T09:08:09;0.30;57.60
27266;DHT22;14766;51.380;13.762;2024-01-11T09:10:37;0.40;58.10
27266;DHT22;14766;51.380;13.762;2024-01-11T09:13:04;0.50;58.60
27266;DHT22;14766;51.380;13.762;2024-01-11T09:15:31;0.70;58.70
27266;DHT22;14766;51.380;13.762;2024-01-11T09:17:59;0.90;58.20
27266;DHT22;14766;51.380;13.762;2024-01-11T09:20:30;1.20;58.10
27266;DHT22;14766;51.380;13.762;2024-01-11T09:22:57;1.50;58.20
27266;DHT22;14766;51.380;13.762;2024-01-11T09:25:24;1.80;57.10
27266;DHT22;14766;51.380;13.762;2024-01-11T09:27:51;2.10;56.70
27266;DHT22;14766;51.380;13.762;2024-01-11T09:30:18;2.30;55.60
27266;DHT22;14766;51.380;13.762;2024-01-11T09:32:46;2.50;54.90
27266;DHT22;14766;51.380;13.762;2024-01-11T09:35:14;2.60;54.40
27266;DHT22;14766;51.380;13.762;2024-01-11T09:37:42;2.60;53.90
27266;DHT22;14766;51.380;13.762;2024-01-11T09:40:12;2.50;53.20
27266;DHT22;14766;51.380;13.762;2024-01-11T09:42:40;2.40;53.30
27266;DHT22;14766;51.380;13.762;2024-01-11T09:45:09;2.20;53.10
27266;DHT22;14766;51.380;13.762;2024-01-11T09:47:39;2.00;53.30
27266;DHT22;14766;51.380;13.762;2024-01-11T09:50:07;1.90;53.70
27266;DHT22;14766;51.380;13.762;2024-01-11T09:52:34;1.80;53.90
27266;DHT22;14766;51.380;13.762;2024-01-11T09:55:04;1.70;54.80
27266;DHT22;14766;51.380;13.762;2024-01-11T09:57:32;1.60;54.40
27266;DHT22;14766;51.380;13.762;2024-01-11T10:00:04;1.60;54.90
27266;DHT22;14766;51.380;13.762;2024-01-11T10:02:34;1.50;55.30
27266;DHT22;14766;51.380;13.762;2024-01-11T10:05:01;1.60;55.60
27266;DHT22;14766;51.380;13.762;2024-01-11T10:07:30;1.70;55.50
27266;DHT22;14766;51.380;13.762;2024-01-11T10:09:58;1.80;55.40
27266;DHT22;14766;51.380;13.762;2024-01-11T10:12:27;2.00;55.10
27266;DHT22;14766;51.380;13.762;2024-01-11T10:14:54;2.20;54.80
27266;DHT22;14766;51.380;13.762;2024-01-11T10:17:22;2.50;54.20
27266;DHT22;14766;51.380;13.762;2024-01-11T10:19:53;2.60;53.80
27266;DHT22;14766;51.380;13.762;2024-01-11T10:22:21;2.90;53.80
27266;DHT22;14766;51.380;13.762;2024-01-11T10:25:11;3.10;53.20
27266;DHT22;14766;51.380;13.762;2024-01-11T10:27:44;3.40;52.00
27266;DHT22;14766;51.380;13.762;2024-01-11T10:30:12;3.60;50.80
27266;DHT22;14766;51.380;13.762;2024-01-11T10:32:46;3.80;51.30
27266;DHT22;14766;51.380;13.762;2024-01-11T10:35:14;4.00;51.60
27266;DHT22;14766;51.380;13.762;2024-01-11T10:37:44;4.20;50.70
27266;DHT22;14766;51.380;13.762;2024-01-11T10:40:12;4.40;49.60
27266;DHT22;14766;51.380;13.762;2024-01-11T10:42:43;4.40;49.00
27266;DHT22;14766;51.380;13.762;2024-01-11T10:47:53;4.70;48.00
27266;DHT22;14766;51.380;13.762;2024-01-11T10:50:23;4.70;47.50
27266;DHT22;14766;51.380;13.762;2024-01-11T10:55:34;4.70;48.20
27266;DHT22;14766;51.380;13.762;2024-01-11T10:58:02;4.80;48.60
27266;DHT22;14766;51.380;13.762;2024-01-11T11:00:31;4.90;48.10
27266;DHT22;14766;51.380;13.762;2024-01-11T11:02:59;5.00;47.40
27266;DHT22;14766;51.380;13.762;2024-01-11T11:05:28;5.00;47.10
27266;DHT22;14766;51.380;13.762;2024-01-11T11:07:58;4.90;46.90
27266;DHT22;14766;51.380;13.762;2024-01-11T11:10:28;4.80;47.00
27266;DHT22;14766;51.380;13.762;2024-01-11T11:12:58;4.60;47.00
27266;DHT22;14766;51.380;13.762;2024-01-11T11:15:27;4.50;47.60
27266;DHT22;14766;51.380;13.762;2024-01-11T11:17:57;4.40;48.40
27266;DHT22;14766;51.380;13.762;2024-01-11T11:20:25;4.30;48.70
27266;DHT22;14766;51.380;13.762;2024-01-11T11:25:32;4.10;48.50
27266;DHT22;14766;51.380;13.762;2024-01-11T11:28:00;4.00;48.70
27266;DHT22;14766;51.380;13.762;2024-01-11T11:30:32;3.90;49.20
27266;DHT22;14766;51.380;13.762;2024-01-11T11:33:09;3.80;49.40
27266;DHT22;14766;51.380;13.762;2024-01-11T11:35:38;3.70;49.60
27266;DHT22;14766;51.380;13.762;2024-01-11T11:38:05;3.60;50.00
27266;DHT22;14766;51.380;13.762;2024-01-11T11:40:37;3.50;50.10
27266;DHT22;14766;51.380;13.762;2024-01-11T11:43:07;3.40;50.40
27266;DHT22;14766;51.380;13.762;2024-01-11T11:45:34;3.30;50.50
27266;DHT22;14766;51.380;13.762;2024-01-11T11:51:09;3.10;51.00
27266;DHT22;14766;51.380;13.762;2024-01-11T11:53:38;3.00;51.40
27266;DHT22;14766;51.380;13.762;2024-01-11T11:56:07;3.00;52.00
27266;DHT22;14766;51.380;13.762;2024-01-11T11:58:35;2.90;52.10
27266;DHT22;14766;51.380;13.762;2024-01-11T12:01:05;2.90;52.00
27266;DHT22;14766;51.380;13.762;2024-01-11T12:03:33;3.00;52.00
27266;DHT22;14766;51.380;13.762;2024-01-11T12:06:05;3.00;51.70
27266;DHT22;14766;51.380;13.762;2024-01-11T12:08:34;3.00;51.30
27266;DHT22;14766;51.380;13.762;2024-01-11T12:11:01;3.00;51.10
27266;DHT22;14766;51.380;13.762;2024-01-11T12:13:29;3.00;51.20
27266;DHT22;14766;51.380;13.762;2024-01-11T12:16:00;3.00;51.30
27266;DHT22;14766;51.380;13.762;2024-01-11T12:18:28;3.00;51.70
27266;DHT22;14766;51.380;13.762;2024-01-11T12:20:56;3.00;51.30
27266;DHT22;14766;51.380;13.762;2024-01-11T12:23:24;3.00;51.40
27266;DHT22;14766;51.380;13.762;2024-01-11T12:25:52;3.00;50.90
27266;DHT22;14766;51.380;13.762;2024-01-11T12:28:19;2.90;50.90
27266;DHT22;14766;51.380;13.762;2024-01-11T12:30:46;2.90;50.80
27266;DHT22;14766;51.380;13.762;2024-01-11T12:33:15;2.80;50.90
27266;DHT22;14766;51.380;13.762;2024-01-11T12:35:43;2.70;51.00
27266;DHT22;14766;51.380;13.762;2024-01-11T12:38:11;2.70;51.40
27266;DHT22;14766;51.380;13.762;2024-01-11T12:40:38;2.60;51.50
27266;DHT22;14766;51.380;13.762;2024-01-11T12:43:07;2.60;51.70
27266;DHT22;14766;51.380;13.762;2024-01-11T12:45:35;2.50;51.80
27266;DHT22;14766;51.380;13.762;2024-01-11T12:48:03;2.60;52.40
27266;DHT22;14766;51.380;13.762;2024-01-11T12:50:34;2.50;52.30
27266;DHT22;14766;51.380;13.762;2024-01-11T12:53:12;2.50;52.40
27266;DHT22;14766;51.380;13.762;2024-01-11T12:55:49;2.50;52.60
27266;DHT22;14766;51.380;13.762;2024-01-11T12:58:24;2.50;52.70
27266;DHT22;14766;51.380;13.762;2024-01-11T13:00:53;2.50;52.50
27266;DHT22;14766;51.380;13.762;2024-01-11T13:03:21;2.40;52.50
27266;DHT22;14766;51.380;13.762;2024-01-11T13:05:49;2.40;53.30
27266;DHT22;14766;51.380;13.762;2024-01-11T13:08:16;2.40;52.70
27266;DHT22;14766;51.380;13.762;2024-01-11T13:10:47;2.30;52.80
27266;DHT22;14766;51.380;13.762;2024-01-11T13:13:16;2.30;52.80
27266;DHT22;14766;51.380;13.762;2024-01-11T13:15:43;2.30;52.90
27266;DHT22;14766;51.380;13.762;2024-01-11T13:18:10;2.30;53.00
27266;DHT22;14766;51.380;13.762;2024-01-11T13:20:38;2.40;53.10
27266;DHT22;14766;51.380;13.762;2024-01-11T13:23:18;2.30;53.20
27266;DHT22;14766;51.380;13.762;2024-01-11T13:25:49;2.40;53.20
27266;DHT22;14766;51.380;13.762;2024-01-11T13:28:17;2.30;53.10
27266;DHT22;14766;51.380;13.762;2024-01-11T13:30:46;2.40;53.20
27266;DHT22;14766;51.380;13.762;2024-01-11T13:33:14;2.30;53.30
27266;DHT22;14766;51.380;13.762;2024-01-11T13:35:45;2.30;53.40
27266;DHT22;14766;51.380;13.762;2024-01-11T13:38:13;2.30;53.60
27266;DHT22;14766;51.380;13.762;2024-01-11T13:40:40;2.30;53.70
27266;DHT22;14766;51.380;13.762;2024-01-11T13:43:07;2.30;53.80
27266;DHT22;14766;51.380;13.762;2024-01-11T13:45:35;2.30;54.00
27266;DHT22;14766;51.380;13.762;2024-01-11T13:48:04;2.30;54.40
27266;DHT22;14766;51.380;13.762;2024-01-11T13:50:33;2.20;54.50
27266;DHT22;14766;51.380;13.762;2024-01-11T13:53:01;2.20;54.50
27266;DHT22;14766;51.380;13.762;2024-01-11T13:55:30;2.20;54.40
27266;DHT22;14766;51.380;13.762;2024-01-11T13:58:06;2.20;54.40
27266;DHT22;14766;51.380;13.762;2024-01-11T14:00:33;2.10;54.30
27266;DHT22;14766;51.380;13.762;2024-01-11T14:03:02;2.10;54.00
27266;DHT22;14766;51.380;13.762;2024-01-11T14:05:33;2.00;53.80
27266;DHT22;14766;51.380;13.762;2024-01-11T14:08:00;2.00;53.70
27266;DHT22;14766;51.380;13.762;2024-01-11T14:10:28;2.00;53.70
27266;DHT22;14766;51.380;13.762;2024-01-11T14:12:55;1.90;53.60
27266;DHT22;14766;51.380;13.762;2024-01-11T14:15:22;1.90;53.60
27266;DHT22;14766;51.380;13.762;2024-01-11T14:17:50;1.90;53.60
27266;DHT22;14766;51.380;13.762;2024-01-11T14:20:18;1.90;53.70
27266;DHT22;14766;51.380;13.762;2024-01-11T14:22:46;1.90;53.70
27266;DHT22;14766;51.380;13.762;2024-01-11T14:25:17;1.80;53.80
27266;DHT22;14766;51.380;13.762;2024-01-11T14:27:44;1.80;53.90
27266;DHT22;14766;51.380;13.762;2024-01-11T14:30:12;1.80;53.80
27266;DHT22;14766;51.380;13.762;2024-01-11T14:32:40;1.80;53.90
27266;DHT22;14766;51.380;13.762;2024-01-11T14:35:10;1.70;53.80
27266;DHT22;14766;51.380;13.762;2024-01-11T14:37:39;1.70;53.90
27266;DHT22;14766;51.380;13.762;2024-01-11T14:40:08;1.70;54.00
27266;DHT22;14766;51.380;13.762;2024-01-11T14:42:39;1.70;54.10
27266;DHT22;14766;51.380;13.762;2024-01-11T14:45:07;1.60;54.00
27266;DHT22;14766;51.380;13.762;2024-01-11T14:47:35;1.60;54.00
27266;DHT22;14766;51.380;13.762;2024-01-11T14:50:03;1.60;54.10
27266;DHT22;14766;51.380;13.762;2024-01-11T14:52:31;1.50;54.20
27266;DHT22;14766;51.380;13.762;2024-01-11T14:54:59;1.50;54.30
27266;DHT22;14766;51.380;13.762;2024-01-11T14:57:26;1.50;54.40
27266;DHT22;14766;51.380;13.762;2024-01-11T14:59:53;1.50;54.70
27266;DHT22;14766;51.380;13.762;2024-01-11T15:02:21;1.40;54.70
27266;DHT22;14766;51.380;13.762;2024-01-11T15:04:49;1.40;54.70
27266;DHT22;14766;51.380;13.762;2024-01-11T15:07:16;1.40;54.90
27266;DHT22;14766;51.380;13.762;2024-01-11T15:09:43;1.30;54.80
27266;DHT22;14766;51.380;13.762;2024-01-11T15:12:11;1.30;54.90
27266;DHT22;14766;51.380;13.762;2024-01-11T15:14:38;1.30;55.10
27266;DHT22;14766;51.380;13.762;2024-01-11T15:17:05;1.30;55.10
27266;DHT22;14766;51.380;13.762;2024-01-11T15:19:32;1.20;55.10
27266;DHT22;14766;51.380;13.762;2024-01-11T15:22:00;1.20;55.20
27266;DHT22;14766;51.380;13.762;2024-01-11T15:24:27;1.20;55.30
27266;DHT22;14766;51.380;13.762;2024-01-11T15:26:56;1.20;55.50
27266;DHT22;14766;51.380;13.762;2024-01-11T15:29:24;1.10;55.60
27266;DHT22;14766;51.380;13.762;2024-01-11T15:31:52;1.10;55.70
27266;DHT22;14766;51.380;13.762;2024-01-11T15:34:19;1.00;55.70
27266;DHT22;14766;51.380;13.762;2024-01-11T15:36:47;1.00;55.90
27266;DHT22;14766;51.380;13.762;2024-01-11T15:39:14;1.00;55.80